Time;durP1;ratioP1;P1;durP2;ratioP2;P2;SDS_P1;SDS_P2;PMS_P1;PMS_P2;Temp;Humidity;BMP_temperature;BMP_pressure;BME280_temperature;BME280_humidity;BME280_pressure;Samples;Min_cycle;Max_cycle;Signal;HPM_P1;HPM_P2
2023/06/07 00:01:08;;;;;;;9.00;6.63;;;;;;;18.75;53.73;101900.56;4973065;28;20026;-83
2023/06/07 00:03:34;;;;;;;11.50;6.53;;;;;;;18.71;53.59;101899.00;4966858;28;20034;-83
2023/06/07 00:06:03;;;;;;;11.60;6.65;;;;;;;18.64;53.83;101897.56;4986516;28;20093;-83
2023/06/07 00:08:29;;;;;;;13.43;6.35;;;;;;;18.67;53.74;101907.25;4980981;28;20669;-83
2023/06/07 00:10:55;;;;;;;11.02;6.38;;;;;;;18.57;53.96;101901.56;4986630;28;20018;-83
2023/06/07 00:13:20;;;;;;;11.00;6.68;;;;;;;18.55;54.35;101907.00;4990830;28;20490;-83
2023/06/07 00:15:46;;;;;;;8.80;7.32;;;;;;;18.48;54.27;101912.81;4983431;28;20042;-83
2023/06/07 00:18:11;;;;;;;11.88;7.38;;;;;;;18.48;54.39;101912.81;4989517;28;20141;-83
2023/06/07 00:20:36;;;;;;;11.70;6.50;;;;;;;18.45;54.20;101903.13;4985789;28;20112;-83
2023/06/07 00:23:04;;;;;;;11.50;6.78;;;;;;;18.47;54.07;101908.41;4973118;28;20022;-83
2023/06/07 00:25:30;;;;;;;13.05;6.45;;;;;;;18.40;54.37;101923.06;4987731;28;20022;-83
2023/06/07 00:27:55;;;;;;;11.88;6.72;;;;;;;18.38;54.68;101908.91;4987125;28;20069;-83
2023/06/07 00:30:20;;;;;;;11.05;6.03;;;;;;;18.39;54.70;101916.00;4987168;28;20034;-83
2023/06/07 00:32:46;;;;;;;14.43;6.47;;;;;;;18.41;54.88;101912.25;4988791;28;20029;-83
2023/06/07 00:35:12;;;;;;;15.13;6.63;;;;;;;18.38;54.44;101900.88;4984524;28;20038;-83
2023/06/07 00:37:37;;;;;;;11.52;6.97;;;;;;;18.37;54.45;101905.34;4979726;28;20081;-83
2023/06/07 00:40:04;;;;;;;10.68;6.43;;;;;;;18.49;53.95;101904.66;4988869;28;20034;-83
2023/06/07 00:42:34;;;;;;;12.40;6.68;;;;;;;18.48;54.41;101908.31;4990570;28;20564;-83
2023/06/07 00:44:59;;;;;;;12.95;6.93;;;;;;;18.39;54.27;101907.97;4985860;28;20026;-83
2023/06/07 00:47:26;;;;;;;12.35;6.85;;;;;;;18.33;53.83;101910.03;4986913;28;20042;-83
2023/06/07 00:49:52;;;;;;;9.18;5.97;;;;;;;18.32;54.41;101904.75;4985850;28;20034;-83
2023/06/07 00:52:18;;;;;;;12.02;6.43;;;;;;;18.20;54.60;101910.78;4975781;28;20161;-83
2023/06/07 00:54:44;;;;;;;10.48;6.63;;;;;;;18.16;54.77;101907.41;4988615;28;20174;-83
2023/06/07 00:57:10;;;;;;;10.35;6.57;;;;;;;18.15;54.79;101902.16;4983483;28;20507;-83
2023/06/07 00:59:35;;;;;;;12.85;6.60;;;;;;;18.14;54.60;101906.66;4989600;28;20042;-83
2023/06/07 01:02:01;;;;;;;11.95;7.18;;;;;;;18.06;54.58;101906.19;4987894;28;20500;-83
2023/06/07 01:04:29;;;;;;;11.48;6.55;;;;;;;18.02;55.29;101897.47;4984721;28;20065;-83
2023/06/07 01:06:55;;;;;;;10.77;6.47;;;;;;;17.99;55.06;101902.97;4990667;28;20141;-83
2023/06/07 01:09:22;;;;;;;12.60;6.43;;;;;;;17.92;55.52;101906.09;4986221;28;20081;-83
2023/06/07 01:11:50;;;;;;;12.65;6.22;;;;;;;17.91;55.31;101901.69;4985703;28;20481;-83
2023/06/07 01:14:18;;;;;;;11.80;6.78;;;;;;;17.89;55.48;101893.72;4989330;28;20392;-83
2023/06/07 01:16:48;;;;;;;11.63;6.43;;;;;;;17.84;55.75;101895.78;4984432;28;20473;-83
2023/06/07 01:19:21;;;;;;;12.20;6.85;;;;;;;17.79;55.71;101901.38;4985567;28;20034;-83
2023/06/07 01:21:50;;;;;;;10.57;6.55;;;;;;;17.69;55.99;101893.91;4973407;28;20033;-83
2023/06/07 01:24:18;;;;;;;12.82;7.10;;;;;;;17.70;56.35;101883.13;4984330;28;20105;-83
2023/06/07 01:26:45;;;;;;;14.70;7.18;;;;;;;17.63;56.15;101896.91;4968622;28;20038;-83
2023/06/07 01:29:12;;;;;;;13.13;7.03;;;;;;;17.55;56.45;101897.31;4984058;28;20559;-83
2023/06/07 01:31:39;;;;;;;10.73;6.72;;;;;;;17.53;56.77;101896.50;4985811;28;20422;-83
2023/06/07 01:34:07;;;;;;;9.95;6.93;;;;;;;17.47;56.69;101889.69;4991327;28;20026;-83
2023/06/07 01:36:34;;;;;;;11.55;6.95;;;;;;;17.44;56.46;101887.19;4995704;28;20060;-83
2023/06/07 01:39:00;;;;;;;12.38;6.93;;;;;;;17.36;56.95;101893.88;4988605;28;20097;-83
2023/06/07 01:41:30;;;;;;;11.82;6.85;;;;;;;17.32;56.79;101882.47;4991215;28;20497;-83
2023/06/07 01:43:59;;;;;;;13.45;7.00;;;;;;;17.36;56.87;101885.84;4993753;28;20026;-84
2023/06/07 01:46:26;;;;;;;11.02;6.80;;;;;;;17.29;57.14;101893.31;4968438;28;20050;-83
2023/06/07 01:48:51;;;;;;;12.15;6.53;;;;;;;17.23;57.43;101889.13;4981100;28;20053;-83
2023/06/07 01:51:16;;;;;;;13.57;6.97;;;;;;;17.43;56.70;101900.59;4988103;28;20045;-83
2023/06/07 01:53:43;;;;;;;11.95;6.68;;;;;;;17.23;56.99;101880.25;4986273;28;20073;-83
2023/06/07 01:56:22;;;;;;;15.25;6.50;;;;;;;17.22;56.55;101886.56;4972240;28;20030;-83
2023/06/07 01:59:10;;;;;;;13.35;7.10;;;;;;;17.22;56.60;101882.06;4983617;28;20493;-83
2023/06/07 02:01:49;;;;;;;12.70;6.85;;;;;;;17.11;57.23;101879.06;4973830;28;20073;-83
2023/06/07 02:04:20;;;;;;;13.65;7.65;;;;;;;17.06;57.49;101871.28;4988344;28;20054;-83
2023/06/07 02:06:48;;;;;;;12.23;7.40;;;;;;;17.02;57.63;101874.19;4991451;28;20086;-83
2023/06/07 02:09:15;;;;;;;14.57;7.15;;;;;;;16.97;57.96;101874.44;4991078;28;20022;-83
2023/06/07 02:11:41;;;;;;;12.30;7.45;;;;;;;16.96;58.57;101885.19;4973441;28;20461;-83
2023/06/07 02:14:08;;;;;;;12.15;7.63;;;;;;;16.95;57.82;101883.47;4989751;28;20019;-83
2023/06/07 02:16:35;;;;;;;13.25;7.00;;;;;;;16.89;58.08;101881.13;4988386;28;20484;-83
2023/06/07 02:19:04;;;;;;;12.90;7.10;;;;;;;16.90;58.51;101883.69;4987909;28;20025;-83
2023/06/07 02:21:31;;;;;;;12.55;7.00;;;;;;;16.78;58.32;101885.16;4990125;28;20038;-83
2023/06/07 02:23:56;;;;;;;11.82;7.85;;;;;;;16.80;58.67;101885.97;4989654;28;20042;-83
2023/06/07 02:26:23;;;;;;;16.20;7.85;;;;;;;16.79;58.43;101878.91;4983756;28;20053;-83
2023/06/07 02:28:48;;;;;;;12.82;7.38;;;;;;;16.76;58.47;101878.19;4988307;28;20118;-83
2023/06/07 02:31:13;;;;;;;14.68;7.47;;;;;;;16.66;59.01;101880.41;4986551;28;20105;-83
2023/06/07 02:33:39;;;;;;;13.25;7.50;;;;;;;16.63;58.95;101877.00;4989468;28;20030;-83
2023/06/07 02:36:04;;;;;;;13.18;7.95;;;;;;;16.64;59.09;101882.28;4985622;28;20054;-83
2023/06/07 02:38:29;;;;;;;11.02;7.82;;;;;;;16.68;58.96;101883.84;4988074;28;20032;-83
2023/06/07 02:40:55;;;;;;;12.45;7.13;;;;;;;16.61;59.28;101879.78;4989145;28;20026;-83
2023/06/07 02:43:20;;;;;;;13.95;7.47;;;;;;;16.64;59.11;101884.94;4987195;28;20030;-83
2023/06/07 02:45:45;;;;;;;13.32;7.72;;;;;;;16.61;59.17;101882.44;4982735;28;20451;-83
2023/06/07 02:48:12;;;;;;;11.40;7.32;;;;;;;16.71;58.70;101881.03;4983616;28;20026;-83
2023/06/07 02:50:38;;;;;;;13.45;7.20;;;;;;;16.59;59.18;101876.28;4966905;28;20026;-83
2023/06/07 02:53:05;;;;;;;15.88;7.85;;;;;;;16.76;58.58;101884.38;4981146;28;20022;-83
2023/06/07 02:55:31;;;;;;;12.70;7.35;;;;;;;16.68;58.78;101886.53;4988022;28;20022;-83
2023/06/07 02:57:56;;;;;;;11.75;6.95;;;;;;;16.64;58.83;101884.06;4970062;28;20034;-83
2023/06/07 03:00:23;;;;;;;15.80;7.53;;;;;;;16.58;59.30;101879.91;4982882;28;20113;-83
2023/06/07 03:02:48;;;;;;;16.25;8.50;;;;;;;16.63;59.01;101885.03;4979452;28;20034;-83
2023/06/07 03:05:13;;;;;;;11.90;7.43;;;;;;;16.64;58.93;101887.59;4988592;28;20096;-83
2023/06/07 03:07:40;;;;;;;16.13;7.97;;;;;;;16.59;59.03;101881.63;4966834;28;20041;-83
2023/06/07 03:10:06;;;;;;;14.43;8.20;;;;;;;16.48;59.14;101894.66;4984476;28;20045;-83
2023/06/07 03:12:32;;;;;;;13.82;7.90;;;;;;;16.41;59.48;101885.19;4985348;28;20076;-83
2023/06/07 03:14:57;;;;;;;12.02;7.70;;;;;;;16.40;59.58;101894.13;4983065;28;20112;-83
2023/06/07 03:17:22;;;;;;;15.00;8.02;;;;;;;16.36;59.86;101881.88;4981369;28;20034;-83
2023/06/07 03:19:48;;;;;;;13.20;8.40;;;;;;;16.34;59.47;101887.31;4988911;28;20054;-83
2023/06/07 03:22:13;;;;;;;13.77;8.40;;;;;;;16.29;59.55;101889.31;4989949;28;20117;-83
2023/06/07 03:24:38;;;;;;;13.68;8.45;;;;;;;16.26;60.01;101884.97;4966716;28;20052;-83
2023/06/07 03:27:05;;;;;;;12.05;8.07;;;;;;;16.27;59.85;101891.19;4985349;28;20027;-83
2023/06/07 03:29:31;;;;;;;16.80;8.02;;;;;;;16.24;59.90;101892.22;4985397;28;20116;-83
2023/06/07 03:31:56;;;;;;;15.23;7.68;;;;;;;16.28;59.94;101892.94;4983791;28;20101;-83
2023/06/07 03:34:22;;;;;;;14.02;8.35;;;;;;;16.10;60.12;101894.66;4981156;28;20120;-83
2023/06/07 03:36:48;;;;;;;14.35;7.60;;;;;;;16.22;59.99;101885.19;4983607;28;20054;-83
2023/06/07 03:39:14;;;;;;;14.95;7.38;;;;;;;16.19;60.07;101888.91;4981475;28;20117;-83
2023/06/07 03:41:39;;;;;;;15.23;8.05;;;;;;;16.13;59.98;101889.16;4986505;28;20110;-83
2023/06/07 03:44:05;;;;;;;13.35;7.20;;;;;;;16.09;60.05;101895.59;4970128;28;20360;-83
2023/06/07 03:46:30;;;;;;;12.57;6.93;;;;;;;16.16;60.34;101898.84;4982213;28;20034;-83
2023/06/07 03:48:55;;;;;;;15.13;7.00;;;;;;;16.14;59.85;101904.25;4985195;28;20034;-83
2023/06/07 03:51:20;;;;;;;11.50;7.95;;;;;;;16.12;60.02;101895.44;4982327;28;20022;-83
2023/06/07 03:53:46;;;;;;;12.18;7.53;;;;;;;16.15;60.04;101894.44;4989690;28;20038;-83
2023/06/07 03:56:11;;;;;;;14.05;8.25;;;;;;;16.12;60.09;101889.25;4964914;28;20027;-83
2023/06/07 03:58:37;;;;;;;13.23;7.45;;;;;;;16.10;60.33;101894.66;4988329;28;20018;-83
2023/06/07 04:01:02;;;;;;;13.05;7.65;;;;;;;16.07;60.33;101897.47;4985308;28;20034;-83
2023/06/07 04:03:30;;;;;;;10.65;7.38;;;;;;;16.08;60.29;101900.03;4983390;28;20433;-83
2023/06/07 04:05:55;;;;;;;10.00;7.05;;;;;;;16.17;60.45;101895.22;4982013;28;20070;-83
2023/06/07 04:08:20;;;;;;;12.90;7.70;;;;;;;16.19;59.97;101891.56;4984083;28;20098;-83
2023/06/07 04:10:46;;;;;;;14.05;7.80;;;;;;;16.18;59.93;101895.19;4988964;28;20026;-83
2023/06/07 04:13:11;;;;;;;17.45;6.90;;;;;;;16.19;60.06;101891.56;4984352;28;20389;-83
2023/06/07 04:15:36;;;;;;;10.48;6.80;;;;;;;16.22;59.76;101894.06;4983131;28;20318;-83
2023/06/07 04:18:02;;;;;;;12.68;7.28;;;;;;;16.25;60.05;101895.75;4979794;28;20488;-83
2023/06/07 04:20:28;;;;;;;12.48;7.57;;;;;;;16.27;59.49;101892.06;4982705;28;20495;-83
2023/06/07 04:22:53;;;;;;;12.30;7.07;;;;;;;16.30;59.49;101897.25;4987841;28;20044;-83
2023/06/07 04:25:21;;;;;;;14.48;7.75;;;;;;;16.26;59.83;101893.00;4982926;28;20397;-83
2023/06/07 04:27:48;;;;;;;14.85;6.93;;;;;;;16.28;59.68;101893.81;4986311;28;20581;-83
2023/06/07 04:30:15;;;;;;;14.07;7.47;;;;;;;16.36;59.91;101895.22;4980907;28;20041;-83
2023/06/07 04:32:41;;;;;;;12.52;7.30;;;;;;;16.41;58.85;101898.53;4985092;28;20061;-83
2023/06/07 04:35:06;;;;;;;16.75;7.00;;;;;;;16.38;59.60;101890.69;4979954;28;20054;-83
2023/06/07 04:37:31;;;;;;;12.60;6.65;;;;;;;16.37;59.30;101897.84;4982417;28;20031;-83
2023/06/07 04:39:57;;;;;;;15.00;7.20;;;;;;;16.39;59.15;101893.28;4986759;28;20033;-83
2023/06/07 04:42:23;;;;;;;15.40;7.13;;;;;;;16.43;58.88;101905.53;4984603;28;20034;-83
2023/06/07 04:44:50;;;;;;;11.65;6.85;;;;;;;16.43;58.90;101912.69;4986377;28;20305;-83
2023/06/07 04:47:17;;;;;;;14.60;7.13;;;;;;;16.50;58.87;101912.31;4983015;28;20027;-83
2023/06/07 04:49:43;;;;;;;11.02;6.78;;;;;;;16.49;59.04;101912.38;4964457;28;20097;-83
2023/06/07 04:52:08;;;;;;;15.13;7.05;;;;;;;16.52;58.79;101901.56;4986012;28;20018;-83
2023/06/07 04:54:36;;;;;;;13.73;6.90;;;;;;;16.46;58.77;101905.41;4987029;28;20058;-83
2023/06/07 04:57:02;;;;;;;11.02;6.32;;;;;;;16.52;58.75;101905.09;4970853;28;20028;-83
2023/06/07 04:59:29;;;;;;;13.32;6.38;;;;;;;16.53;58.78;101904.16;4967508;28;20112;-83
2023/06/07 05:01:54;;;;;;;15.65;7.00;;;;;;;16.47;59.04;101895.59;4986278;28;20560;-82
2023/06/07 05:04:21;;;;;;;13.23;6.53;;;;;;;16.51;58.59;101911.41;4983484;28;20157;-83
2023/06/07 05:06:46;;;;;;;13.90;6.70;;;;;;;16.55;58.58;101896.97;4983400;28;20101;-83
2023/06/07 05:09:11;;;;;;;13.45;6.72;;;;;;;16.57;58.75;101899.53;4983385;28;20197;-83
2023/06/07 05:11:37;;;;;;;16.42;7.40;;;;;;;16.54;58.67;101903.22;4986012;28;20030;-83
2023/06/07 05:14:02;;;;;;;12.77;7.18;;;;;;;16.59;58.78;101903.00;4986423;28;20045;-83
2023/06/07 05:16:27;;;;;;;11.98;6.45;;;;;;;16.60;58.32;101899.41;4981485;28;20026;-83
2023/06/07 05:18:53;;;;;;;15.02;6.72;;;;;;;16.61;58.33;101902.94;4985980;28;20049;-83
2023/06/07 05:21:18;;;;;;;14.68;7.00;;;;;;;16.70;58.59;101911.38;4961967;28;20041;-83
2023/06/07 05:23:44;;;;;;;12.80;6.55;;;;;;;16.85;58.01;101901.75;4982584;28;20036;-83
2023/06/07 05:26:09;;;;;;;11.15;7.10;;;;;;;17.00;57.92;101919.69;4986474;28;20485;-83
2023/06/07 05:28:35;;;;;;;11.13;6.35;;;;;;;17.09;57.17;101918.38;4983648;28;20038;-83
2023/06/07 05:31:01;;;;;;;13.18;6.85;;;;;;;17.17;56.92;101918.84;4965079;28;20057;-83
2023/06/07 05:33:30;;;;;;;12.10;6.28;;;;;;;17.25;56.53;101914.00;4984481;28;20062;-83
2023/06/07 05:35:56;;;;;;;14.35;6.60;;;;;;;17.26;56.66;101917.53;4968744;28;20022;-83
2023/06/07 05:38:22;;;;;;;12.93;6.70;;;;;;;17.23;57.19;101915.00;4987250;28;20026;-83
2023/06/07 05:40:47;;;;;;;11.40;6.53;;;;;;;17.24;56.60;101920.25;4986011;28;20061;-83
2023/06/07 05:43:12;;;;;;;11.73;6.40;;;;;;;17.22;56.88;101916.81;4986708;28;20026;-83
2023/06/07 05:45:40;;;;;;;12.35;6.57;;;;;;;17.26;56.45;101914.84;4983411;28;20496;-83
2023/06/07 05:48:05;;;;;;;12.13;6.50;;;;;;;17.28;55.99;101911.16;4978626;28;20093;-83
2023/06/07 05:50:31;;;;;;;12.57;6.65;;;;;;;17.37;56.21;101914.31;4984182;28;20549;-83
2023/06/07 05:52:57;;;;;;;12.38;6.63;;;;;;;17.48;55.93;101919.94;4977482;28;20022;-83
2023/06/07 05:55:26;;;;;;;17.83;6.97;;;;;;;17.56;55.41;101925.75;4984306;28;20053;-83
2023/06/07 05:57:52;;;;;;;11.88;6.82;;;;;;;17.66;55.62;101923.47;4965119;28;20026;-83
2023/06/07 06:00:18;;;;;;;14.27;6.65;;;;;;;17.79;55.35;101929.94;4988300;28;20519;-83
2023/06/07 06:02:46;;;;;;;13.00;6.97;;;;;;;17.80;54.71;101935.19;4958517;28;20179;-83
2023/06/07 06:05:17;;;;;;;12.85;6.07;;;;;;;17.78;54.81;101942.47;4978252;28;20046;-83
2023/06/07 06:07:43;;;;;;;15.90;6.87;;;;;;;17.81;54.61;101941.41;4986843;28;20040;-83
2023/06/07 06:10:10;;;;;;;12.93;7.00;;;;;;;17.77;54.21;101938.06;4982770;28;20647;-83
2023/06/07 06:12:35;;;;;;;11.80;6.25;;;;;;;17.80;53.95;101940.56;4983962;28;20553;-83
2023/06/07 06:15:01;;;;;;;14.70;6.40;;;;;;;17.78;54.14;101937.09;4982230;28;20030;-83
2023/06/07 06:17:26;;;;;;;14.32;7.40;;;;;;;17.79;54.52;101938.81;4987002;28;20099;-83
2023/06/07 06:19:52;;;;;;;13.77;6.53;;;;;;;17.84;54.24;101930.56;4981576;28;20491;-83
2023/06/07 06:22:17;;;;;;;13.95;7.20;;;;;;;17.89;54.27;101939.19;4980422;28;20105;-84
2023/06/07 06:24:42;;;;;;;12.82;6.72;;;;;;;18.03;53.92;101949.16;4984575;28;20042;-83
2023/06/07 06:27:09;;;;;;;13.85;6.65;;;;;;;18.10;53.74;101939.88;4984906;28;20038;-83
2023/06/07 06:29:34;;;;;;;20.30;7.32;;;;;;;18.19;53.13;101939.38;4988869;28;20457;-84
2023/06/07 06:32:00;;;;;;;11.23;6.70;;;;;;;18.25;53.19;101941.72;4969542;28;20110;-83
2023/06/07 06:34:28;;;;;;;12.55;6.03;;;;;;;18.39;52.70;101948.13;4987018;28;20117;-83
2023/06/07 06:36:53;;;;;;;13.45;6.80;;;;;;;18.47;52.95;101957.47;4983251;28;20026;-83
2023/06/07 06:39:19;;;;;;;12.25;6.68;;;;;;;18.56;52.66;101956.09;4964938;28;20038;-83
2023/06/07 06:41:45;;;;;;;12.73;5.53;;;;;;;18.59;51.78;101943.38;4983839;28;20034;-83
2023/06/07 06:44:10;;;;;;;12.13;6.45;;;;;;;18.60;52.26;101954.94;4965619;28;20559;-83
2023/06/07 06:46:35;;;;;;;16.77;7.18;;;;;;;18.56;52.29;101956.09;4984989;28;20495;-83
2023/06/07 06:49:00;;;;;;;8.57;5.88;;;;;;;18.64;51.96;101956.50;4984397;28;20030;-83
2023/06/07 06:51:26;;;;;;;11.63;6.38;;;;;;;18.69;51.38;101970.53;4982691;28;20426;-84
2023/06/07 06:53:51;;;;;;;11.73;5.85;;;;;;;18.72;51.72;101962.34;4984290;28;20520;-83
2023/06/07 06:56:16;;;;;;;13.27;6.53;;;;;;;18.74;50.90;101965.78;4984483;28;20069;-83
2023/06/07 06:58:42;;;;;;;12.88;6.47;;;;;;;18.83;51.06;101970.63;4976122;28;20235;-83
2023/06/07 07:01:08;;;;;;;14.90;6.43;;;;;;;18.83;51.34;101965.25;4985509;28;20030;-83
2023/06/07 07:03:33;;;;;;;11.35;6.28;;;;;;;18.91;51.04;101972.00;4966314;28;20033;-83
2023/06/07 07:05:58;;;;;;;15.40;6.57;;;;;;;19.00;51.01;101977.69;4985742;28;20437;-83
2023/06/07 07:08:24;;;;;;;16.05;6.47;;;;;;;19.14;51.11;101982.28;4982964;28;20563;-84
2023/06/07 07:10:50;;;;;;;11.02;6.28;;;;;;;19.19;50.65;101968.59;4968194;28;20027;-82
2023/06/07 07:13:15;;;;;;;12.57;6.45;;;;;;;19.31;50.32;101963.38;4968965;28;20076;-83
2023/06/07 07:15:40;;;;;;;12.07;5.90;;;;;;;19.54;50.55;101967.38;4971306;28;21454;-82
2023/06/07 07:18:07;;;;;;;11.15;5.30;;;;;;;19.71;49.55;101968.22;4970847;28;20060;-83
2023/06/07 07:20:33;;;;;;;11.13;6.15;;;;;;;19.83;48.82;101967.47;4973844;28;20031;-84
2023/06/07 07:23:01;;;;;;;13.05;6.80;;;;;;;20.05;48.47;101975.03;4985349;28;20026;-83
2023/06/07 07:25:27;;;;;;;11.77;6.38;;;;;;;20.09;47.87;101971.22;4990184;28;20019;-83
2023/06/07 07:27:52;;;;;;;12.65;5.90;;;;;;;20.06;48.66;101977.66;4992131;28;20034;-84
2023/06/07 07:30:18;;;;;;;16.10;6.60;;;;;;;20.09;48.21;101974.75;4991972;28;20026;-84
2023/06/07 07:32:43;;;;;;;14.35;6.38;;;;;;;20.27;47.36;101972.75;4975387;28;20030;-83
2023/06/07 07:35:09;;;;;;;11.60;6.25;;;;;;;20.34;47.36;101971.41;4990274;28;20042;-83
2023/06/07 07:37:35;;;;;;;15.73;5.78;;;;;;;20.36;48.58;101969.50;4988631;28;20107;-83
2023/06/07 07:40:00;;;;;;;11.82;6.00;;;;;;;20.29;48.55;101967.31;4973740;28;20026;-83
2023/06/07 07:42:27;;;;;;;13.80;6.63;;;;;;;20.26;47.67;101979.09;4985975;28;20034;-83
2023/06/07 07:44:52;;;;;;;13.25;6.10;;;;;;;20.20;48.09;101976.81;4981531;28;20452;-81
2023/06/07 07:47:17;;;;;;;14.18;5.85;;;;;;;20.29;49.05;101978.91;4983739;28;20121;-81
2023/06/07 07:49:42;;;;;;;9.48;5.85;;;;;;;20.36;48.60;101980.22;4982598;28;20386;-83
2023/06/07 07:52:08;;;;;;;11.90;6.05;;;;;;;20.41;48.03;101973.72;4972184;28;20951;-82
2023/06/07 07:54:33;;;;;;;13.82;5.50;;;;;;;20.55;47.92;101984.47;4966771;28;20030;-83
2023/06/07 07:57:00;;;;;;;15.80;6.20;;;;;;;20.59;47.13;101994.06;4982722;28;20026;-83
2023/06/07 07:59:25;;;;;;;10.25;6.03;;;;;;;20.67;46.14;101994.44;4984844;28;20034;-81
2023/06/07 08:01:51;;;;;;;15.10;6.00;;;;;;;20.72;45.73;101991.47;4986958;28;20034;-81
2023/06/07 08:04:17;;;;;;;14.00;6.25;;;;;;;20.86;46.56;101991.44;4983699;28;20433;-81
2023/06/07 08:06:42;;;;;;;15.82;6.95;;;;;;;21.87;44.89;101982.81;4992902;28;20037;-81
2023/06/07 08:09:09;;;;;;;12.77;5.65;;;;;;;23.21;41.94;101976.75;4986851;28;20032;-82
2023/06/07 08:11:35;;;;;;;10.02;5.63;;;;;;;24.50;38.45;101985.66;4989821;28;20011;-81
2023/06/07 08:14:00;;;;;;;14.90;6.43;;;;;;;25.39;37.67;101971.03;4984355;28;20397;-81
2023/06/07 08:16:25;;;;;;;10.32;4.85;;;;;;;25.98;37.07;101980.47;4985689;28;20018;-81
2023/06/07 08:18:57;;;;;;;13.88;5.20;;;;;;;26.40;37.21;101979.38;4978431;28;20030;-82
2023/06/07 08:21:23;;;;;;;;;;;;;;;27.05;38.09;101982.56;4988972;28;20408;-82
2023/06/07 08:23:49;;;;;;;10.02;5.43;;;;;;;27.27;34.82;101980.59;4984266;28;20021;-82
2023/06/07 08:26:17;;;;;;;10.45;5.15;;;;;;;27.50;34.47;101978.44;4986372;28;20079;-82
2023/06/07 08:28:42;;;;;;;12.13;5.68;;;;;;;27.59;34.35;101981.13;4987147;28;20584;-82
2023/06/07 08:31:10;;;;;;;13.75;5.68;;;;;;;27.58;33.89;101976.72;4985464;28;20109;-82
2023/06/07 08:33:35;;;;;;;13.05;5.10;;;;;;;27.83;34.00;101971.69;4987691;28;20409;-81
2023/06/07 08:36:01;;;;;;;13.43;5.68;;;;;;;28.29;31.52;101965.38;4983500;28;20093;-81
2023/06/07 08:38:26;;;;;;;10.23;5.35;;;;;;;28.86;31.56;101976.97;4966571;28;20413;-82
2023/06/07 08:40:54;;;;;;;14.73;6.25;;;;;;;29.16;30.33;101969.50;4971451;28;20113;-82
2023/06/07 08:43:19;;;;;;;11.45;5.47;;;;;;;28.46;32.11;101964.63;4988509;28;20440;-82
2023/06/07 08:45:45;;;;;;;11.68;5.88;;;;;;;27.29;33.70;101967.75;4983723;28;20030;-82
2023/06/07 08:48:12;;;;;;;13.57;5.80;;;;;;;26.29;35.56;101974.03;4985666;28;20501;-82
2023/06/07 08:50:38;;;;;;;15.80;6.13;;;;;;;25.88;36.67;101973.13;4968239;28;20480;-82
2023/06/07 08:53:12;;;;;;;10.98;5.72;;;;;;;26.54;35.41;101977.31;4985546;28;20350;-82
2023/06/07 08:55:38;;;;;;;11.18;5.38;;;;;;;26.85;34.87;101980.78;4990851;28;20044;-82
2023/06/07 08:58:03;;;;;;;13.32;6.15;;;;;;;26.90;34.08;101978.50;4967767;28;20039;-82
2023/06/07 09:00:28;;;;;;;11.48;6.13;;;;;;;26.92;35.13;101973.81;4968560;28;20026;-81
2023/06/07 09:02:54;;;;;;;12.45;6.10;;;;;;;27.03;34.68;101970.13;4979257;28;20066;-81
2023/06/07 09:05:21;;;;;;;12.68;5.97;;;;;;;27.29;34.14;101974.03;4968616;28;20046;-82
2023/06/07 09:07:46;;;;;;;9.85;5.82;;;;;;;27.53;34.25;101967.28;4988004;28;20477;-81
2023/06/07 09:10:13;;;;;;;11.68;6.47;;;;;;;27.59;32.96;101967.56;4978609;28;20022;-81
2023/06/07 09:12:39;;;;;;;15.07;6.13;;;;;;;27.20;35.31;101967.59;4981631;28;20385;-82
2023/06/07 09:15:07;;;;;;;11.75;6.93;;;;;;;26.61;35.51;101973.88;4982767;28;20470;-81
2023/06/07 09:17:55;;;;;;;13.15;7.03;;;;;;;26.29;36.42;101986.72;4978743;28;20149;-82
2023/06/07 09:20:25;;;;;;;12.30;6.70;;;;;;;25.93;36.96;101978.16;4980268;28;20473;-83
2023/06/07 09:23:00;;;;;;;13.63;7.10;;;;;;;25.77;36.55;101975.91;4983830;28;20481;-82
2023/06/07 09:25:27;;;;;;;9.43;6.15;;;;;;;25.89;37.61;101984.81;4982265;28;20489;-81
2023/06/07 09:27:53;;;;;;;10.30;6.57;;;;;;;25.82;37.43;101986.34;4969450;28;20044;-82
2023/06/07 09:30:19;;;;;;;14.10;6.35;;;;;;;25.79;36.82;101973.94;4961808;28;20026;-82
2023/06/07 09:32:44;;;;;;;12.38;7.18;;;;;;;25.77;36.43;101975.03;4987141;28;20033;-82
2023/06/07 09:35:14;;;;;;;13.60;7.13;;;;;;;25.89;37.09;101976.69;4964059;28;20453;-82
2023/06/07 09:37:51;;;;;;;12.57;7.07;;;;;;;25.80;36.71;101981.06;4989077;28;20502;-82
2023/06/07 09:40:16;;;;;;;14.15;7.00;;;;;;;25.83;36.42;101971.78;4980804;28;20468;-82
2023/06/07 09:42:43;;;;;;;13.00;6.60;;;;;;;25.84;37.21;101973.53;4988803;28;20084;-82
2023/06/07 09:45:15;;;;;;;15.98;7.60;;;;;;;25.84;37.07;101971.69;4983522;28;20030;-82
2023/06/07 09:47:42;;;;;;;17.42;7.80;;;;;;;25.87;36.46;101975.94;4987210;28;20877;-82
2023/06/07 09:50:12;;;;;;;12.02;7.90;;;;;;;25.86;36.39;101977.81;4984952;28;20355;-82
2023/06/07 09:52:38;;;;;;;14.75;7.70;;;;;;;25.86;36.91;101977.81;4990442;28;20377;-82
2023/06/07 09:55:06;;;;;;;11.05;7.38;;;;;;;25.52;38.30;101978.97;4986298;28;20034;-82
2023/06/07 09:57:34;;;;;;;15.90;7.90;;;;;;;25.50;37.90;101979.09;4988743;28;20311;-82
2023/06/07 10:00:14;;;;;;;13.93;8.35;;;;;;;25.48;37.57;101972.09;4985360;28;20045;-82
2023/06/07 10:02:44;;;;;;;11.98;7.47;;;;;;;25.53;37.89;101970.72;4981529;28;20045;-82
2023/06/07 10:05:12;;;;;;;14.88;6.90;;;;;;;25.48;39.30;101970.25;4984615;28;20046;-81
2023/06/07 10:07:46;;;;;;;13.02;6.68;;;;;;;25.30;39.03;101963.69;4984571;28;20161;-82
2023/06/07 10:10:14;;;;;;;11.68;6.85;;;;;;;25.20;38.50;101966.31;4986279;28;20022;-80
2023/06/07 10:12:41;;;;;;;10.77;6.95;;;;;;;25.43;38.33;101962.53;4992935;28;20026;-80
2023/06/07 10:15:09;;;;;;;10.38;6.82;;;;;;;25.62;38.52;101961.81;4988150;28;20109;-80
2023/06/07 10:17:51;;;;;;;10.00;6.95;;;;;;;25.69;39.21;101968.41;4991435;28;20026;-81
2023/06/07 10:20:26;;;;;;;13.55;7.75;;;;;;;25.81;37.81;101966.50;4991336;28;20681;-81
2023/06/07 10:22:57;;;;;;;16.08;7.97;;;;;;;25.57;37.93;101963.19;4991655;28;20128;-81
2023/06/07 10:25:24;;;;;;;15.63;8.00;;;;;;;25.60;37.56;101963.78;4982789;28;20027;-84
2023/06/07 10:28:02;;;;;;;13.90;6.82;;;;;;;25.43;38.62;101956.25;4971233;28;20173;-84
2023/06/07 10:30:32;;;;;;;17.08;7.88;;;;;;;25.26;38.22;101962.22;4967074;28;20049;-85
2023/06/07 10:32:58;;;;;;;13.20;7.47;;;;;;;25.13;38.59;101970.53;4988523;28;20014;-85
2023/06/07 10:35:24;;;;;;;15.15;7.35;;;;;;;24.97;40.22;101970.06;4983996;28;20034;-84
2023/06/07 10:37:53;;;;;;;14.27;7.70;;;;;;;24.93;40.88;101969.44;4987321;28;20141;-84
2023/06/07 10:40:20;;;;;;;14.13;7.75;;;;;;;24.89;40.89;101962.56;4985841;28;20033;-84
2023/06/07 10:42:46;;;;;;;11.57;7.57;;;;;;;24.94;40.15;101961.19;4989937;28;20034;-84
2023/06/07 10:45:16;;;;;;;15.93;8.95;;;;;;;25.00;39.44;101972.53;4988277;28;20022;-84
2023/06/07 10:47:42;;;;;;;14.32;7.85;;;;;;;25.06;39.76;101964.75;4983923;28;20256;-84
2023/06/07 10:50:08;;;;;;;14.77;8.40;;;;;;;25.04;38.80;101955.03;4986890;28;20022;-84
2023/06/07 10:52:53;;;;;;;12.13;7.05;;;;;;;25.06;39.03;101955.75;4986906;28;20053;-84
2023/06/07 10:55:30;;;;;;;15.52;8.10;;;;;;;25.07;38.62;101958.38;4989799;28;20029;-81
2023/06/07 10:57:56;;;;;;;11.55;7.63;;;;;;;24.82;40.41;101958.69;4986823;28;20449;-81
2023/06/07 11:00:33;;;;;;;14.10;7.95;;;;;;;24.74;40.29;101959.31;4985550;28;20149;-81
2023/06/07 11:03:04;;;;;;;13.40;7.07;;;;;;;24.69;39.45;101966.94;4989966;28;20034;-81
2023/06/07 11:05:57;;;;;;;13.13;7.45;;;;;;;24.77;39.76;101961.75;4987142;28;20054;-81
2023/06/07 11:08:23;;;;;;;12.15;8.13;;;;;;;24.68;39.92;101957.09;4989924;28;20425;-81
2023/06/07 11:10:49;;;;;;;13.80;7.32;;;;;;;24.72;40.37;101945.06;4989088;28;20583;-81
2023/06/07 11:13:14;;;;;;;14.23;7.80;;;;;;;24.66;40.18;101945.53;4984236;28;20085;-81
2023/06/07 11:15:40;;;;;;;13.85;7.13;;;;;;;24.61;40.83;101945.06;4988222;28;20083;-81